createdAt,value
2018-04-12T00:00:02.532Z,19.00
2018-04-12T00:02:31.024Z,20.03
2018-04-12T00:04:59.510Z,20.10
2018-04-12T00:07:27.957Z,19.80
2018-04-12T00:09:56.500Z,19.40
2018-04-12T00:12:24.964Z,20.87
2018-04-12T00:14:53.426Z,20.03
2018-04-12T00:17:21.948Z,19.73
2018-04-12T00:19:50.453Z,21.93
2018-04-12T00:22:18.944Z,20.67
2018-04-12T00:24:47.460Z,22.27
2018-04-12T00:27:15.949Z,21.23
2018-04-12T00:29:44.468Z,21.80
2018-04-12T00:32:12.993Z,22.07
2018-04-12T00:34:41.520Z,22.23
2018-04-12T00:37:10.042Z,21.63
2018-04-12T00:39:38.514Z,21.03
2018-04-12T00:42:06.984Z,22.17
2018-04-12T00:44:35.496Z,23.17
2018-04-12T00:47:03.986Z,21.20
2018-04-12T00:49:32.481Z,22.23
2018-04-12T00:52:00.941Z,24.10
2018-04-12T00:54:29.466Z,21.90
2018-04-12T00:56:57.947Z,20.63
2018-04-12T00:59:26.458Z,19.07
2018-04-12T01:01:54.921Z,20.10
2018-04-12T01:04:23.429Z,18.93
2018-04-12T01:06:51.895Z,18.07
2018-04-12T01:09:20.415Z,17.20
2018-04-12T01:11:48.912Z,16.23
2018-04-12T01:14:17.441Z,17.03
2018-04-12T01:16:45.937Z,17.00
2018-04-12T01:19:14.480Z,16.23
2018-04-12T01:21:42.994Z,18.80
2018-04-12T01:24:11.500Z,16.67
2018-04-12T01:26:40.052Z,16.77
2018-04-12T01:29:08.513Z,17.00
2018-04-12T01:31:37.020Z,16.70
2018-04-12T01:34:05.539Z,16.30
2018-04-12T01:36:34.052Z,16.97
2018-04-12T01:39:02.558Z,16.17
2018-04-12T01:41:31.052Z,16.50
2018-04-12T01:43:59.504Z,16.23
2018-04-12T01:46:28.000Z,16.47
2018-04-12T01:48:56.470Z,17.57
2018-04-12T01:51:24.980Z,18.13
2018-04-12T01:53:53.492Z,16.57
2018-04-12T01:56:22.032Z,17.83
2018-04-12T01:58:50.515Z,18.33
2018-04-12T02:01:19.028Z,19.50
2018-04-12T02:03:47.493Z,21.10
2018-04-12T02:06:16.004Z,21.00
2018-04-12T02:08:44.490Z,21.77
2018-04-12T02:11:12.953Z,20.93
2018-04-12T02:13:41.452Z,21.93
2018-04-12T02:16:09.954Z,22.10
2018-04-12T02:18:38.476Z,22.80
2018-04-12T02:21:06.977Z,21.37
2018-04-12T02:23:35.498Z,20.80
2018-04-12T02:26:04.004Z,21.43
2018-04-12T02:28:32.489Z,21.93
2018-04-12T02:31:00.999Z,21.67
2018-04-12T02:33:29.501Z,22.27
2018-04-12T02:35:58.001Z,23.40
2018-04-12T02:38:26.493Z,26.57
2018-04-12T02:40:54.965Z,25.13
2018-04-12T02:43:23.456Z,27.57
2018-04-12T02:45:51.961Z,24.53
2018-04-12T02:48:20.432Z,23.60
2018-04-12T02:50:48.936Z,23.40
2018-04-12T02:53:17.404Z,21.63
2018-04-12T02:55:45.901Z,20.43
2018-04-12T02:58:14.444Z,20.20
2018-04-12T03:00:42.905Z,18.27
2018-04-12T03:03:11.396Z,19.53
2018-04-12T03:05:39.864Z,19.47
2018-04-12T03:08:08.364Z,17.53
2018-04-12T03:10:36.826Z,16.80
2018-04-12T03:13:05.388Z,16.77
2018-04-12T03:15:33.833Z,15.73
2018-04-12T03:18:02.304Z,16.63
2018-04-12T03:20:30.859Z,16.10
2018-04-12T03:22:59.340Z,16.93
2018-04-12T03:25:27.848Z,16.17
2018-04-12T03:27:56.312Z,15.60
2018-04-12T03:30:24.803Z,14.97
2018-04-12T03:32:53.320Z,16.00
2018-04-12T03:35:21.788Z,15.33
2018-04-12T03:37:50.266Z,16.57
2018-04-12T03:40:18.727Z,16.67
2018-04-12T03:42:47.220Z,17.13
2018-04-12T03:45:15.682Z,16.63
2018-04-12T03:47:44.188Z,19.17
2018-04-12T03:50:12.684Z,19.63
2018-04-12T03:52:41.135Z,18.47
2018-04-12T03:55:09.649Z,19.43
2018-04-12T03:57:38.161Z,19.30
2018-04-12T04:00:06.728Z,19.10
2018-04-12T04:02:35.245Z,20.67
2018-04-12T04:05:03.753Z,23.13
2018-04-12T04:07:32.212Z,23.63
2018-04-12T04:10:00.724Z,24.27
2018-04-12T04:12:29.260Z,21.90
2018-04-12T04:18:10.651Z,27.47
2018-04-12T04:20:51.145Z,27.20
2018-04-12T04:23:19.648Z,30.37
2018-04-12T04:25:48.141Z,29.30
2018-04-12T04:28:16.604Z,25.77
2018-04-12T04:30:45.136Z,28.53
2018-04-12T04:33:13.611Z,26.23
2018-04-12T04:35:42.085Z,27.57
2018-04-12T04:38:10.601Z,30.93
2018-04-12T04:40:39.089Z,32.50
2018-04-12T04:43:07.604Z,27.83
2018-04-12T04:45:36.130Z,31.57
2018-04-12T04:48:04.623Z,32.40
2018-04-12T04:50:33.265Z,32.13
2018-04-12T04:53:01.771Z,32.23
2018-04-12T04:55:30.241Z,28.80
2018-04-12T04:57:58.851Z,28.77
2018-04-12T05:00:27.744Z,27.90
2018-04-12T05:02:56.558Z,25.90
2018-04-12T05:05:25.096Z,26.53
2018-04-12T05:07:53.600Z,28.17
2018-04-12T05:10:22.277Z,25.17
2018-04-12T05:12:50.796Z,24.97
2018-04-12T05:15:19.533Z,24.93
2018-04-12T05:17:48.084Z,25.07
2018-04-12T05:20:16.584Z,24.00
2018-04-12T05:22:45.102Z,24.53
2018-04-12T05:25:13.653Z,23.67
2018-04-12T05:27:42.128Z,23.90
2018-04-12T05:30:10.632Z,23.77
2018-04-12T05:32:39.132Z,23.90
2018-04-12T05:35:07.609Z,23.63
2018-04-12T05:37:36.168Z,23.73
2018-04-12T05:40:04.681Z,25.80
2018-04-12T05:42:33.151Z,26.27
2018-04-12T05:45:01.657Z,26.63
2018-04-12T05:47:30.181Z,25.37
2018-04-12T05:49:58.715Z,27.03
2018-04-12T05:52:27.192Z,26.63
2018-04-12T05:54:55.705Z,27.70
2018-04-12T05:57:24.204Z,26.73
2018-04-12T05:59:52.662Z,24.33
2018-04-12T06:02:21.173Z,22.87
2018-04-12T06:04:49.676Z,23.60
2018-04-12T06:07:18.278Z,23.47
2018-04-12T06:09:46.761Z,24.63
2018-04-12T06:12:15.286Z,22.17
2018-04-12T06:14:43.761Z,22.83
2018-04-12T06:17:12.225Z,20.63
2018-04-12T06:19:40.773Z,21.20
2018-04-12T06:22:09.261Z,22.30
2018-04-12T06:24:37.772Z,23.03
2018-04-12T06:27:06.238Z,22.10
2018-04-12T06:29:34.775Z,21.83
2018-04-12T06:32:03.237Z,22.57
2018-04-12T06:34:31.786Z,21.77
2018-04-12T06:37:00.261Z,22.97
2018-04-12T06:39:28.741Z,20.87
2018-04-12T06:41:57.232Z,21.33
2018-04-12T06:44:25.700Z,20.63
2018-04-12T06:46:54.206Z,21.47
2018-04-12T06:49:23.605Z,22.80
2018-04-12T06:51:52.115Z,21.83
2018-04-12T06:54:20.631Z,22.17
2018-04-12T06:56:49.117Z,22.13
2018-04-12T06:59:17.636Z,22.77
2018-04-12T07:01:46.117Z,24.07
2018-04-12T07:04:14.632Z,24.27
2018-04-12T07:06:43.136Z,25.87
2018-04-12T07:09:11.742Z,27.23
2018-04-12T07:11:40.265Z,26.07
2018-04-12T07:14:08.789Z,25.57
2018-04-12T07:16:37.295Z,24.83
2018-04-12T07:19:05.797Z,23.27
2018-04-12T07:21:34.287Z,24.40
2018-04-12T07:24:02.775Z,23.13
2018-04-12T07:26:31.299Z,24.83
2018-04-12T07:28:59.776Z,23.90
2018-04-12T07:31:28.253Z,24.97
2018-04-12T07:33:56.784Z,24.17
2018-04-12T07:36:25.258Z,23.97
2018-04-12T07:38:53.775Z,22.67
2018-04-12T07:41:22.273Z,22.53
2018-04-12T07:43:50.800Z,22.03
2018-04-12T07:46:19.321Z,20.90
2018-04-12T07:48:47.776Z,19.70
2018-04-12T07:51:16.278Z,20.57
2018-04-12T07:53:44.768Z,20.17
2018-04-12T07:56:13.273Z,18.10
2018-04-12T07:58:42.800Z,21.40
2018-04-12T08:01:11.427Z,18.50
2018-04-12T08:03:39.949Z,19.50
2018-04-12T08:06:08.464Z,19.17
2018-04-12T08:08:36.983Z,18.67
2018-04-12T08:11:05.536Z,16.60
2018-04-12T08:13:34.004Z,17.13
2018-04-12T08:16:02.570Z,15.93
2018-04-12T08:18:31.058Z,14.23
2018-04-12T08:20:59.532Z,12.40
2018-04-12T08:23:28.044Z,11.57
2018-04-12T08:25:57.273Z,12.03
2018-04-12T08:28:27.075Z,11.33
2018-04-12T08:30:55.692Z,12.33
2018-04-12T08:33:24.181Z,13.63
2018-04-12T08:35:52.681Z,10.97
2018-04-12T08:38:21.164Z,11.90
2018-04-12T08:40:49.667Z,12.73
2018-04-12T08:43:18.142Z,12.80
2018-04-12T08:45:46.653Z,15.50
2018-04-12T08:48:15.145Z,12.97
2018-04-12T08:50:43.682Z,13.63
2018-04-12T08:53:12.218Z,13.70
2018-04-12T08:55:41.351Z,13.70
2018-04-12T08:58:09.856Z,14.07
2018-04-12T09:00:38.341Z,13.23
2018-04-12T09:03:06.977Z,12.83
2018-04-12T09:05:35.456Z,13.17
2018-04-12T09:08:03.916Z,13.83
2018-04-12T09:10:32.569Z,13.07
2018-04-12T09:13:01.032Z,13.00
2018-04-12T09:15:29.515Z,14.53
2018-04-12T09:17:57.977Z,13.80
2018-04-12T09:20:26.480Z,13.80
2018-04-12T09:22:55.004Z,14.13
2018-04-12T09:25:23.477Z,13.80
2018-04-12T09:27:51.949Z,12.20
2018-04-12T09:30:20.471Z,12.37
2018-04-12T09:32:48.981Z,12.20
2018-04-12T09:35:17.497Z,12.77
2018-04-12T09:37:46.047Z,11.90
2018-04-12T09:40:14.543Z,11.97
2018-04-12T09:42:43.072Z,12.73
2018-04-12T09:45:11.597Z,11.60
2018-04-12T09:47:40.083Z,10.90
2018-04-12T09:50:08.594Z,11.17
2018-04-12T09:52:37.093Z,10.20
2018-04-12T09:55:05.583Z,11.03
2018-04-12T09:57:34.123Z,10.43
2018-04-12T10:00:02.715Z,11.77
2018-04-12T10:02:31.232Z,11.30
2018-04-12T10:05:00.544Z,11.70
2018-04-12T10:07:34.658Z,11.37
2018-04-12T10:10:03.137Z,11.40
2018-04-12T10:12:31.637Z,11.63
2018-04-12T10:15:00.139Z,11.40
2018-04-12T10:17:28.675Z,11.13
2018-04-12T10:19:57.226Z,10.33
2018-04-12T10:22:25.706Z,11.13
2018-04-12T10:24:54.228Z,10.70
2018-04-12T10:27:22.726Z,10.17
2018-04-12T10:29:51.201Z,11.03
2018-04-12T10:32:19.759Z,10.47
2018-04-12T10:34:48.322Z,10.00
2018-04-12T10:37:16.783Z,10.07
2018-04-12T10:39:45.301Z,9.07
2018-04-12T10:42:13.757Z,8.60
2018-04-12T10:44:42.252Z,8.73
2018-04-12T10:47:10.801Z,8.40
2018-04-12T10:49:39.269Z,10.17
2018-04-12T10:52:07.796Z,10.03
2018-04-12T10:54:36.249Z,9.47
2018-04-12T10:57:04.787Z,9.80
2018-04-12T10:59:33.277Z,8.13
2018-04-12T11:02:01.788Z,8.20
2018-04-12T11:04:30.293Z,9.37
2018-04-12T11:06:58.803Z,9.30
2018-04-12T11:09:27.260Z,9.60
2018-04-12T11:11:55.718Z,10.13
2018-04-12T11:14:24.274Z,10.67
2018-04-12T11:16:52.740Z,10.50
2018-04-12T11:19:21.215Z,11.17
2018-04-12T11:21:49.744Z,11.70
2018-04-12T11:24:18.298Z,11.43
2018-04-12T11:26:46.780Z,11.87
2018-04-12T11:29:15.306Z,11.70
2018-04-12T11:31:43.836Z,11.20
2018-04-12T11:34:12.388Z,11.03
2018-04-12T11:36:40.906Z,9.53
2018-04-12T11:39:09.402Z,9.47
2018-04-12T11:41:37.900Z,8.17
2018-04-12T11:44:06.420Z,8.47
2018-04-12T11:46:34.956Z,6.53
2018-04-12T11:49:03.425Z,7.07
2018-04-12T11:51:31.904Z,7.87
2018-04-12T11:54:00.423Z,8.23
2018-04-12T11:56:29.039Z,7.87
2018-04-12T11:58:57.548Z,7.73
2018-04-12T12:01:25.993Z,7.93
2018-04-12T12:03:54.496Z,8.00
2018-04-12T12:06:22.989Z,7.27
2018-04-12T12:08:51.589Z,7.60
2018-04-12T12:11:20.132Z,7.83
2018-04-12T12:13:48.601Z,7.70
2018-04-12T12:16:17.072Z,7.90
2018-04-12T12:18:45.598Z,8.07
2018-04-12T12:21:14.141Z,8.87
2018-04-12T12:23:42.698Z,7.67
2018-04-12T12:26:11.197Z,7.00
2018-04-12T12:28:39.668Z,8.07
2018-04-12T12:31:08.161Z,6.37
2018-04-12T12:33:36.652Z,6.37
2018-04-12T12:36:05.212Z,6.00
2018-04-12T12:38:33.760Z,6.33
2018-04-12T12:41:02.228Z,7.00
2018-04-12T12:43:30.738Z,7.10
2018-04-12T12:45:59.205Z,6.13
2018-04-12T12:48:27.692Z,6.60
2018-04-12T12:50:56.201Z,6.60
2018-04-12T12:53:24.690Z,6.47
2018-04-12T12:55:53.207Z,6.40
2018-04-12T12:58:21.740Z,6.10
2018-04-12T13:00:50.197Z,5.80
2018-04-12T13:03:18.657Z,6.00
2018-04-12T13:05:47.204Z,5.90
2018-04-12T13:08:15.712Z,5.90
2018-04-12T13:10:44.212Z,6.33
2018-04-12T13:13:12.755Z,6.57
2018-04-12T13:15:41.255Z,6.10
2018-04-12T13:18:09.725Z,6.03
2018-04-12T13:20:38.298Z,6.13
2018-04-12T13:23:06.800Z,5.80
2018-04-12T13:25:35.300Z,5.60
2018-04-12T13:28:03.913Z,8.77
2018-04-12T13:30:32.502Z,5.60
2018-04-12T13:33:01.077Z,6.00
2018-04-12T13:35:29.594Z,6.30
2018-04-12T13:37:58.081Z,6.10
2018-04-12T13:40:26.597Z,5.83
2018-04-12T13:42:55.112Z,5.63
2018-04-12T13:45:23.614Z,5.70
2018-04-12T13:47:52.160Z,5.73
2018-04-12T13:50:20.649Z,6.10
2018-04-12T13:52:49.164Z,5.80
2018-04-12T13:55:17.692Z,6.10
2018-04-12T13:57:46.202Z,5.97
2018-04-12T14:00:14.713Z,5.70
2018-04-12T14:02:43.165Z,6.00
2018-04-12T14:05:11.625Z,5.70
2018-04-12T14:07:40.113Z,6.13
2018-04-12T14:10:08.670Z,8.30
2018-04-12T14:12:37.141Z,10.07
2018-04-12T14:15:05.657Z,5.83
2018-04-12T14:17:34.125Z,6.27
2018-04-12T14:20:02.608Z,6.43
2018-04-12T14:22:31.069Z,6.63
2018-04-12T14:24:59.568Z,6.83
2018-04-12T14:27:28.001Z,6.50
2018-04-12T14:29:56.513Z,6.80
2018-04-12T14:32:25.029Z,6.90
2018-04-12T14:34:53.521Z,6.93
2018-04-12T14:37:22.039Z,6.13
2018-04-12T14:39:50.509Z,6.37
2018-04-12T14:42:19.013Z,6.37
2018-04-12T14:44:47.509Z,5.70
2018-04-12T14:47:15.988Z,5.43
2018-04-12T14:49:52.431Z,5.47
2018-04-12T14:52:20.904Z,5.87
2018-04-12T14:54:49.403Z,6.13
2018-04-12T14:57:17.892Z,6.53
2018-04-12T14:59:46.377Z,6.10
2018-04-12T15:02:14.821Z,5.97
2018-04-12T15:04:43.313Z,6.37
2018-04-12T15:07:11.834Z,7.17
2018-04-12T15:09:40.299Z,6.40
2018-04-12T15:12:08.792Z,7.10
2018-04-12T15:14:37.244Z,6.53
2018-04-12T15:17:05.727Z,7.17
2018-04-12T15:19:34.215Z,6.67
2018-04-12T15:22:02.676Z,6.53
2018-04-12T15:24:31.128Z,6.63
2018-04-12T15:26:59.638Z,6.57
2018-04-12T15:29:28.169Z,6.40
2018-04-12T15:31:56.626Z,5.67
2018-04-12T15:34:25.107Z,5.93
2018-04-12T15:36:53.610Z,5.97
2018-04-12T15:39:22.069Z,6.37
2018-04-12T15:41:50.534Z,6.17
2018-04-12T15:44:18.984Z,6.30
2018-04-12T15:46:47.476Z,6.00
2018-04-12T15:49:15.932Z,6.40
2018-04-12T15:51:44.377Z,6.30
2018-04-12T15:54:12.869Z,7.33
2018-04-12T15:56:41.369Z,6.67
2018-04-12T15:59:09.840Z,6.50
2018-04-12T16:01:38.345Z,7.07
2018-04-12T16:04:06.804Z,6.67
2018-04-12T16:06:35.270Z,7.07
2018-04-12T16:09:03.837Z,7.17
2018-04-12T16:11:32.282Z,7.07
2018-04-12T16:14:00.724Z,7.67
2018-04-12T16:16:29.187Z,6.67
2018-04-12T16:18:57.644Z,5.77
2018-04-12T16:21:26.139Z,6.57
2018-04-12T16:23:54.612Z,7.10
2018-04-12T16:26:23.115Z,8.00
2018-04-12T16:28:51.571Z,7.60
2018-04-12T16:31:20.089Z,8.13
2018-04-12T16:33:48.536Z,7.83
2018-04-12T16:36:17.017Z,7.27
2018-04-12T16:38:45.460Z,7.20
2018-04-12T16:41:13.956Z,7.43
2018-04-12T16:43:42.384Z,6.97
2018-04-12T16:46:10.893Z,6.70
2018-04-12T16:48:39.408Z,6.53
2018-04-12T16:51:07.875Z,5.57
2018-04-12T16:53:36.357Z,6.20
2018-04-12T16:56:04.858Z,6.77
2018-04-12T16:58:33.349Z,6.53
2018-04-12T17:01:01.804Z,6.40
2018-04-12T17:03:30.298Z,5.50
2018-04-12T17:05:58.744Z,6.27
2018-04-12T17:08:27.181Z,5.67
2018-04-12T17:10:55.665Z,5.70
2018-04-12T17:13:24.140Z,6.07
2018-04-12T17:15:52.595Z,6.10
2018-04-12T17:18:21.054Z,5.40
2018-04-12T17:20:49.528Z,5.70
2018-04-12T17:23:18.031Z,5.70
2018-04-12T17:25:46.531Z,6.33
2018-04-12T17:28:15.008Z,6.40
2018-04-12T17:30:43.472Z,6.70
2018-04-12T17:33:11.947Z,6.27
2018-04-12T17:35:40.411Z,5.63
2018-04-12T17:38:08.894Z,5.73
2018-04-12T17:40:37.340Z,6.37
2018-04-12T17:43:05.827Z,6.03
2018-04-12T17:45:35.132Z,6.20
2018-04-12T17:48:03.617Z,5.93
2018-04-12T17:50:32.068Z,6.20
2018-04-12T17:53:00.535Z,6.37
2018-04-12T17:55:28.953Z,5.87
2018-04-12T17:57:57.442Z,6.23
2018-04-12T18:00:25.937Z,6.90
2018-04-12T18:02:54.430Z,6.43
2018-04-12T18:05:22.885Z,6.93
2018-04-12T18:07:51.368Z,7.20
2018-04-12T18:10:19.841Z,6.50
2018-04-12T18:12:48.354Z,7.37
2018-04-12T18:15:16.803Z,6.47
2018-04-12T18:17:45.274Z,7.00
2018-04-12T18:20:13.772Z,7.17
2018-04-12T18:22:42.272Z,7.17
2018-04-12T18:25:10.713Z,7.13
2018-04-12T18:27:39.202Z,7.33
2018-04-12T18:30:07.704Z,7.47
2018-04-12T18:32:36.220Z,7.27
2018-04-12T18:35:04.666Z,7.70
2018-04-12T18:37:33.112Z,7.20
2018-04-12T18:40:01.585Z,7.50
2018-04-12T18:42:30.078Z,8.27
2018-04-12T18:44:58.520Z,8.87
2018-04-12T18:47:27.005Z,8.63
2018-04-12T18:49:55.502Z,8.33
2018-04-12T18:52:24.022Z,7.73
2018-04-12T18:54:52.515Z,8.93
2018-04-12T18:57:21.048Z,7.97
2018-04-12T18:59:49.537Z,9.10
2018-04-12T19:02:18.012Z,7.60
2018-04-12T19:04:46.467Z,9.53
2018-04-12T19:07:14.983Z,8.37
2018-04-12T19:09:43.460Z,9.23
2018-04-12T19:12:11.922Z,9.57
2018-04-12T19:14:40.408Z,10.33
2018-04-12T19:17:08.874Z,9.40
2018-04-12T19:19:37.368Z,8.87
2018-04-12T19:22:05.842Z,8.53
2018-04-12T19:24:34.296Z,8.83
2018-04-12T19:27:02.784Z,9.70
2018-04-12T19:29:31.238Z,9.30
2018-04-12T19:31:59.730Z,8.83
2018-04-12T19:34:28.158Z,9.13
2018-04-12T19:36:56.645Z,9.23
2018-04-12T19:39:25.100Z,9.20
2018-04-12T19:41:53.607Z,9.10
2018-04-12T19:44:22.086Z,9.93
2018-04-12T19:46:50.606Z,9.57
2018-04-12T19:49:19.059Z,9.67
2018-04-12T19:51:47.516Z,9.93
2018-04-12T19:54:16.034Z,9.57
2018-04-12T19:56:44.481Z,9.93
2018-04-12T19:59:12.972Z,10.07
2018-04-12T20:01:41.463Z,10.00
2018-04-12T20:04:09.903Z,9.93
2018-04-12T20:06:38.395Z,9.67
2018-04-12T20:09:06.852Z,9.90
2018-04-12T20:11:35.341Z,10.47
2018-04-12T20:14:03.838Z,9.40
2018-04-12T20:16:32.317Z,9.23
2018-04-12T20:19:00.794Z,9.63
2018-04-12T20:21:29.252Z,9.60
2018-04-12T20:23:57.740Z,10.10
2018-04-12T20:26:26.228Z,9.90
2018-04-12T20:28:54.717Z,10.03
2018-04-12T20:31:23.181Z,9.73
2018-04-12T20:33:51.686Z,9.93
2018-04-12T20:36:20.218Z,10.20
2018-04-12T20:38:48.797Z,9.17
2018-04-12T20:41:17.347Z,9.50
2018-04-12T20:43:45.941Z,9.90
2018-04-12T20:46:14.579Z,11.03
2018-04-12T20:48:43.183Z,9.27
2018-04-12T20:51:11.733Z,10.83
2018-04-12T20:53:41.333Z,10.37
2018-04-12T20:56:10.353Z,9.70
2018-04-12T20:58:38.930Z,9.57
2018-04-12T21:01:07.522Z,9.53
2018-04-12T21:03:35.964Z,9.43
2018-04-12T21:06:04.437Z,10.10
2018-04-12T21:08:32.924Z,9.17
2018-04-12T21:11:01.373Z,9.17
2018-04-12T21:13:30.332Z,9.50
2018-04-12T21:15:58.788Z,9.90
2018-04-12T21:18:27.268Z,9.90
2018-04-12T21:20:55.749Z,9.57
2018-04-12T21:23:24.202Z,9.60
2018-04-12T21:25:52.680Z,9.93
2018-04-12T21:28:21.138Z,9.03
2018-04-12T21:30:49.621Z,10.50
2018-04-12T21:33:18.072Z,9.53
2018-04-12T21:35:46.560Z,9.87
2018-04-12T21:38:15.020Z,10.70
2018-04-12T21:40:43.493Z,10.43
2018-04-12T21:43:12.000Z,10.37
2018-04-12T21:45:40.467Z,10.33
2018-04-12T21:48:08.945Z,10.27
2018-04-12T21:50:37.417Z,10.90
2018-04-12T21:53:05.884Z,11.20
2018-04-12T21:55:34.333Z,10.80
2018-04-12T21:58:02.829Z,10.27
2018-04-12T22:00:31.293Z,10.87
2018-04-12T22:02:59.838Z,10.57
2018-04-12T22:05:28.320Z,10.73
2018-04-12T22:07:56.828Z,11.10
2018-04-12T22:10:25.392Z,10.87
2018-04-12T22:12:53.913Z,11.70
2018-04-12T22:15:22.456Z,11.07
2018-04-12T22:17:50.948Z,10.60
2018-04-12T22:20:19.480Z,10.30
2018-04-12T22:22:47.970Z,11.23
2018-04-12T22:25:16.568Z,12.40
2018-04-12T22:27:45.084Z,12.10
2018-04-12T22:30:13.628Z,11.93
2018-04-12T22:32:42.144Z,11.57
2018-04-12T22:35:10.664Z,11.27
2018-04-12T22:37:39.189Z,11.97
2018-04-12T22:40:07.728Z,11.63
2018-04-12T22:42:36.338Z,12.30
2018-04-12T22:45:04.852Z,11.57
2018-04-12T22:47:33.338Z,11.90
2018-04-12T22:50:01.869Z,12.77
2018-04-12T22:52:30.406Z,11.83
2018-04-12T22:54:58.941Z,12.13
2018-04-12T22:57:27.478Z,12.17
2018-04-12T22:59:56.008Z,11.73
2018-04-12T23:02:24.488Z,11.60
2018-04-12T23:04:53.075Z,12.27
2018-04-12T23:07:21.656Z,12.17
2018-04-12T23:09:50.208Z,11.90
2018-04-12T23:12:18.728Z,12.87
2018-04-12T23:14:47.310Z,12.27
2018-04-12T23:17:15.818Z,13.03
2018-04-12T23:19:44.384Z,12.10
2018-04-12T23:22:12.919Z,12.70
2018-04-12T23:24:41.532Z,13.23
2018-04-12T23:27:10.113Z,12.30
2018-04-12T23:29:38.653Z,12.90
2018-04-12T23:32:07.216Z,12.80
2018-04-12T23:34:35.860Z,12.27
2018-04-12T23:37:04.437Z,12.80
2018-04-12T23:39:33.001Z,12.73
2018-04-12T23:42:01.540Z,12.73
2018-04-12T23:44:30.082Z,12.77
2018-04-12T23:46:58.640Z,12.53
2018-04-12T23:49:27.211Z,12.73
2018-04-12T23:51:55.769Z,13.30
2018-04-12T23:54:24.375Z,13.97
2018-04-12T23:56:52.948Z,12.90
2018-04-12T23:59:21.454Z,13.60
